<?xml version="1.0" encoding="UTF-8" standalone="no" ?>
<gpx xmlns="http://www.topografix.com/GPX/1/1" xmlns:xsi="http://www.w3.org/2001/XMLSchema-instance" xsi:schemaLocation="http://www.topografix.com/GPX/1/1 http://www.topografix.com/GPX/1/1/gpx.xsd" version="1.1" creator="VisuGPX - https://www.visugpx.com">
  <metadata>
    <name>15247203-MDC Questembert douce</name>
  </metadata>
  <trk>
    <name><![CDATA[15247203-MDC Questembert douce]]></name>
    <trkseg>
      <trkpt lat="47.66125" lon="-2.46565">
        <ele>81</ele>
        <time>2022-10-03T20:25:07Z</time>
      </trkpt>
      <trkpt lat="47.66126" lon="-2.46565">
        <ele>81</ele>
        <time>2022-10-03T20:25:08Z</time>
      </trkpt>
      <trkpt lat="47.66121" lon="-2.46573">
        <ele>81</ele>
        <time>2022-10-03T20:25:18Z</time>
      </trkpt>
      <trkpt lat="47.66112" lon="-2.46593">
        <ele>82</ele>
        <time>2022-10-03T20:25:40Z</time>
      </trkpt>
      <trkpt lat="47.66106" lon="-2.46631">
        <ele>85</ele>
        <time>2022-10-03T20:26:15Z</time>
      </trkpt>
      <trkpt lat="47.6611" lon="-2.46643">
        <ele>85</ele>
        <time>2022-10-03T20:26:27Z</time>
      </trkpt>
      <trkpt lat="47.66115" lon="-2.46648">
        <ele>85</ele>
        <time>2022-10-03T20:26:35Z</time>
      </trkpt>
      <trkpt lat="47.66122" lon="-2.46655">
        <ele>84</ele>
        <time>2022-10-03T20:26:46Z</time>
      </trkpt>
      <trkpt lat="47.66139" lon="-2.46664">
        <ele>82</ele>
        <time>2022-10-03T20:27:10Z</time>
      </trkpt>
      <trkpt lat="47.66158" lon="-2.46667">
        <ele>78</ele>
        <time>2022-10-03T20:27:36Z</time>
      </trkpt>
      <trkpt lat="47.66192" lon="-2.46707">
        <ele>80</ele>
        <time>2022-10-03T20:28:34Z</time>
      </trkpt>
      <trkpt lat="47.66205" lon="-2.46738">
        <ele>82</ele>
        <time>2022-10-03T20:29:06Z</time>
      </trkpt>
      <trkpt lat="47.6623" lon="-2.46798">
        <ele>82</ele>
        <time>2022-10-03T20:30:10Z</time>
      </trkpt>
      <trkpt lat="47.66266" lon="-2.46859">
        <ele>82</ele>
        <time>2022-10-03T20:31:23Z</time>
      </trkpt>
      <trkpt lat="47.66297" lon="-2.46852">
        <ele>82</ele>
        <time>2022-10-03T20:32:05Z</time>
      </trkpt>
      <trkpt lat="47.6629" lon="-2.46881">
        <ele>83</ele>
        <time>2022-10-03T20:32:32Z</time>
      </trkpt>
      <trkpt lat="47.66297" lon="-2.46937">
        <ele>84</ele>
        <time>2022-10-03T20:33:23Z</time>
      </trkpt>
      <trkpt lat="47.66311" lon="-2.47008">
        <ele>85</ele>
        <time>2022-10-03T20:34:30Z</time>
      </trkpt>
      <trkpt lat="47.66323" lon="-2.47057">
        <ele>86</ele>
        <time>2022-10-03T20:35:17Z</time>
      </trkpt>
      <trkpt lat="47.6633" lon="-2.47085">
        <ele>87</ele>
        <time>2022-10-03T20:35:44Z</time>
      </trkpt>
      <trkpt lat="47.66346" lon="-2.47118">
        <ele>88</ele>
        <time>2022-10-03T20:36:20Z</time>
      </trkpt>
      <trkpt lat="47.66408" lon="-2.47155">
        <ele>89</ele>
        <time>2022-10-03T20:37:49Z</time>
      </trkpt>
      <trkpt lat="47.66431" lon="-2.47194">
        <ele>90</ele>
        <time>2022-10-03T20:38:36Z</time>
      </trkpt>
      <trkpt lat="47.66472" lon="-2.4722">
        <ele>89</ele>
        <time>2022-10-03T20:39:35Z</time>
      </trkpt>
      <trkpt lat="47.66487" lon="-2.47232">
        <ele>89</ele>
        <time>2022-10-03T20:39:58Z</time>
      </trkpt>
      <trkpt lat="47.66507" lon="-2.47252">
        <ele>88</ele>
        <time>2022-10-03T20:40:30Z</time>
      </trkpt>
      <trkpt lat="47.66518" lon="-2.47267">
        <ele>88</ele>
        <time>2022-10-03T20:40:50Z</time>
      </trkpt>
      <trkpt lat="47.66551" lon="-2.47328">
        <ele>89</ele>
        <time>2022-10-03T20:42:01Z</time>
      </trkpt>
      <trkpt lat="47.66563" lon="-2.47365">
        <ele>90</ele>
        <time>2022-10-03T20:42:38Z</time>
      </trkpt>
      <trkpt lat="47.66573" lon="-2.47399">
        <ele>91</ele>
        <time>2022-10-03T20:43:11Z</time>
      </trkpt>
      <trkpt lat="47.66578" lon="-2.47418">
        <ele>91</ele>
        <time>2022-10-03T20:43:29Z</time>
      </trkpt>
      <trkpt lat="47.66561" lon="-2.4748">
        <ele>91</ele>
        <time>2022-10-03T20:44:29Z</time>
      </trkpt>
      <trkpt lat="47.66525" lon="-2.47577">
        <ele>93</ele>
        <time>2022-10-03T20:46:09Z</time>
      </trkpt>
      <trkpt lat="47.66517" lon="-2.4759">
        <ele>93</ele>
        <time>2022-10-03T20:46:25Z</time>
      </trkpt>
      <trkpt lat="47.66481" lon="-2.47621">
        <ele>94</ele>
        <time>2022-10-03T20:47:20Z</time>
      </trkpt>
      <trkpt lat="47.66475" lon="-2.47637">
        <ele>94</ele>
        <time>2022-10-03T20:47:37Z</time>
      </trkpt>
      <trkpt lat="47.66488" lon="-2.47674">
        <ele>94</ele>
        <time>2022-10-03T20:48:14Z</time>
      </trkpt>
      <trkpt lat="47.66512" lon="-2.47687">
        <ele>94</ele>
        <time>2022-10-03T20:48:48Z</time>
      </trkpt>
      <trkpt lat="47.66558" lon="-2.47692">
        <ele>95</ele>
        <time>2022-10-03T20:49:50Z</time>
      </trkpt>
      <trkpt lat="47.66591" lon="-2.47673">
        <ele>95</ele>
        <time>2022-10-03T20:50:37Z</time>
      </trkpt>
      <trkpt lat="47.66616" lon="-2.47702">
        <ele>95</ele>
        <time>2022-10-03T20:51:19Z</time>
      </trkpt>
      <trkpt lat="47.66615" lon="-2.47727">
        <ele>95</ele>
        <time>2022-10-03T20:51:42Z</time>
      </trkpt>
      <trkpt lat="47.66607" lon="-2.47765">
        <ele>95</ele>
        <time>2022-10-03T20:52:18Z</time>
      </trkpt>
      <trkpt lat="47.66615" lon="-2.47815">
        <ele>95</ele>
        <time>2022-10-03T20:53:04Z</time>
      </trkpt>
      <trkpt lat="47.66622" lon="-2.47854">
        <ele>95</ele>
        <time>2022-10-03T20:53:40Z</time>
      </trkpt>
      <trkpt lat="47.66658" lon="-2.48029">
        <ele>100</ele>
        <time>2022-10-03T20:56:25Z</time>
      </trkpt>
      <trkpt lat="47.667" lon="-2.48245">
        <ele>105</ele>
        <time>2022-10-03T20:59:47Z</time>
      </trkpt>
      <trkpt lat="47.66738" lon="-2.48299">
        <ele>105</ele>
        <time>2022-10-03T21:00:57Z</time>
      </trkpt>
      <trkpt lat="47.66755" lon="-2.48322">
        <ele>106</ele>
        <time>2022-10-03T21:01:28Z</time>
      </trkpt>
      <trkpt lat="47.66782" lon="-2.48376">
        <ele>107</ele>
        <time>2022-10-03T21:02:28Z</time>
      </trkpt>
      <trkpt lat="47.66867" lon="-2.48459">
        <ele>113</ele>
        <time>2022-10-03T21:04:44Z</time>
      </trkpt>
      <trkpt lat="47.66906" lon="-2.48498">
        <ele>117</ele>
        <time>2022-10-03T21:05:47Z</time>
      </trkpt>
      <trkpt lat="47.6695" lon="-2.48539">
        <ele>120</ele>
        <time>2022-10-03T21:06:56Z</time>
      </trkpt>
      <trkpt lat="47.66957" lon="-2.48549">
        <ele>120</ele>
        <time>2022-10-03T21:07:09Z</time>
      </trkpt>
      <trkpt lat="47.66973" lon="-2.48555">
        <ele>121</ele>
        <time>2022-10-03T21:07:31Z</time>
      </trkpt>
      <trkpt lat="47.66996" lon="-2.48521">
        <ele>120</ele>
        <time>2022-10-03T21:08:14Z</time>
      </trkpt>
      <trkpt lat="47.67025" lon="-2.48496">
        <ele>120</ele>
        <time>2022-10-03T21:08:59Z</time>
      </trkpt>
      <trkpt lat="47.67062" lon="-2.48455">
        <ele>118</ele>
        <time>2022-10-03T21:10:00Z</time>
      </trkpt>
      <trkpt lat="47.67089" lon="-2.48446">
        <ele>117</ele>
        <time>2022-10-03T21:10:37Z</time>
      </trkpt>
      <trkpt lat="47.6715" lon="-2.48433">
        <ele>111</ele>
        <time>2022-10-03T21:12:00Z</time>
      </trkpt>
      <trkpt lat="47.67214" lon="-2.48422">
        <ele>108</ele>
        <time>2022-10-03T21:13:26Z</time>
      </trkpt>
      <trkpt lat="47.67229" lon="-2.48421">
        <ele>107</ele>
        <time>2022-10-03T21:13:46Z</time>
      </trkpt>
      <trkpt lat="47.67303" lon="-2.48344">
        <ele>106</ele>
        <time>2022-10-03T21:15:46Z</time>
      </trkpt>
      <trkpt lat="47.67324" lon="-2.4833">
        <ele>105</ele>
        <time>2022-10-03T21:16:17Z</time>
      </trkpt>
      <trkpt lat="47.67337" lon="-2.48335">
        <ele>105</ele>
        <time>2022-10-03T21:16:35Z</time>
      </trkpt>
      <trkpt lat="47.67348" lon="-2.48361">
        <ele>105</ele>
        <time>2022-10-03T21:17:02Z</time>
      </trkpt>
      <trkpt lat="47.67355" lon="-2.48372">
        <ele>105</ele>
        <time>2022-10-03T21:17:16Z</time>
      </trkpt>
      <trkpt lat="47.67371" lon="-2.48381">
        <ele>104</ele>
        <time>2022-10-03T21:17:39Z</time>
      </trkpt>
      <trkpt lat="47.674" lon="-2.48378">
        <ele>103</ele>
        <time>2022-10-03T21:18:18Z</time>
      </trkpt>
      <trkpt lat="47.67571" lon="-2.48238">
        <ele>101</ele>
        <time>2022-10-03T21:22:38Z</time>
      </trkpt>
      <trkpt lat="47.67578" lon="-2.48215">
        <ele>101</ele>
        <time>2022-10-03T21:23:01Z</time>
      </trkpt>
      <trkpt lat="47.67526" lon="-2.48016">
        <ele>103</ele>
        <time>2022-10-03T21:26:13Z</time>
      </trkpt>
      <trkpt lat="47.67513" lon="-2.47785">
        <ele>104</ele>
        <time>2022-10-03T21:29:41Z</time>
      </trkpt>
      <trkpt lat="47.675" lon="-2.47556">
        <ele>107</ele>
        <time>2022-10-03T21:33:08Z</time>
      </trkpt>
      <trkpt lat="47.67487" lon="-2.4747">
        <ele>107</ele>
        <time>2022-10-03T21:34:27Z</time>
      </trkpt>
      <trkpt lat="47.67447" lon="-2.47342">
        <ele>105</ele>
        <time>2022-10-03T21:36:34Z</time>
      </trkpt>
      <trkpt lat="47.67435" lon="-2.47301">
        <ele>102</ele>
        <time>2022-10-03T21:37:14Z</time>
      </trkpt>
      <trkpt lat="47.67403" lon="-2.47207">
        <ele>97</ele>
        <time>2022-10-03T21:38:48Z</time>
      </trkpt>
      <trkpt lat="47.67354" lon="-2.47057">
        <ele>100</ele>
        <time>2022-10-03T21:41:18Z</time>
      </trkpt>
      <trkpt lat="47.67326" lon="-2.4697">
        <ele>102</ele>
        <time>2022-10-03T21:42:45Z</time>
      </trkpt>
      <trkpt lat="47.67308" lon="-2.46884">
        <ele>102</ele>
        <time>2022-10-03T21:44:06Z</time>
      </trkpt>
      <trkpt lat="47.67295" lon="-2.46852">
        <ele>101</ele>
        <time>2022-10-03T21:44:39Z</time>
      </trkpt>
      <trkpt lat="47.67268" lon="-2.46806">
        <ele>101</ele>
        <time>2022-10-03T21:45:34Z</time>
      </trkpt>
      <trkpt lat="47.67243" lon="-2.46758">
        <ele>102</ele>
        <time>2022-10-03T21:46:29Z</time>
      </trkpt>
      <trkpt lat="47.672" lon="-2.46688">
        <ele>100</ele>
        <time>2022-10-03T21:47:54Z</time>
      </trkpt>
      <trkpt lat="47.67172" lon="-2.46605">
        <ele>100</ele>
        <time>2022-10-03T21:49:17Z</time>
      </trkpt>
      <trkpt lat="47.67151" lon="-2.46547">
        <ele>100</ele>
        <time>2022-10-03T21:50:16Z</time>
      </trkpt>
      <trkpt lat="47.67122" lon="-2.46504">
        <ele>98</ele>
        <time>2022-10-03T21:51:11Z</time>
      </trkpt>
      <trkpt lat="47.67087" lon="-2.46449">
        <ele>93</ele>
        <time>2022-10-03T21:52:19Z</time>
      </trkpt>
      <trkpt lat="47.67061" lon="-2.46388">
        <ele>91</ele>
        <time>2022-10-03T21:53:24Z</time>
      </trkpt>
      <trkpt lat="47.67045" lon="-2.46335">
        <ele>92</ele>
        <time>2022-10-03T21:54:16Z</time>
      </trkpt>
      <trkpt lat="47.67022" lon="-2.46343">
        <ele>91</ele>
        <time>2022-10-03T21:54:48Z</time>
      </trkpt>
      <trkpt lat="47.66991" lon="-2.46381">
        <ele>89</ele>
        <time>2022-10-03T21:55:41Z</time>
      </trkpt>
      <trkpt lat="47.66943" lon="-2.46422">
        <ele>87</ele>
        <time>2022-10-03T21:56:55Z</time>
      </trkpt>
      <trkpt lat="47.66778" lon="-2.4655">
        <ele>82</ele>
        <time>2022-10-03T22:01:04Z</time>
      </trkpt>
      <trkpt lat="47.66732" lon="-2.46548">
        <ele>81</ele>
        <time>2022-10-03T22:02:05Z</time>
      </trkpt>
      <trkpt lat="47.66687" lon="-2.46559">
        <ele>80</ele>
        <time>2022-10-03T22:03:06Z</time>
      </trkpt>
      <trkpt lat="47.66674" lon="-2.46579">
        <ele>80</ele>
        <time>2022-10-03T22:03:31Z</time>
      </trkpt>
      <trkpt lat="47.66655" lon="-2.466">
        <ele>81</ele>
        <time>2022-10-03T22:04:02Z</time>
      </trkpt>
      <trkpt lat="47.66652" lon="-2.46572">
        <ele>80</ele>
        <time>2022-10-03T22:04:28Z</time>
      </trkpt>
      <trkpt lat="47.66642" lon="-2.46553">
        <ele>80</ele>
        <time>2022-10-03T22:04:50Z</time>
      </trkpt>
      <trkpt lat="47.66623" lon="-2.46522">
        <ele>81</ele>
        <time>2022-10-03T22:05:27Z</time>
      </trkpt>
      <trkpt lat="47.66615" lon="-2.46485">
        <ele>83</ele>
        <time>2022-10-03T22:06:02Z</time>
      </trkpt>
      <trkpt lat="47.66534" lon="-2.46578">
        <ele>83</ele>
        <time>2022-10-03T22:08:19Z</time>
      </trkpt>
      <trkpt lat="47.6638" lon="-2.46703">
        <ele>82</ele>
        <time>2022-10-03T22:12:13Z</time>
      </trkpt>
      <trkpt lat="47.66338" lon="-2.46745">
        <ele>78</ele>
        <time>2022-10-03T22:13:21Z</time>
      </trkpt>
      <trkpt lat="47.66335" lon="-2.46751">
        <ele>77</ele>
        <time>2022-10-03T22:13:27Z</time>
      </trkpt>
      <trkpt lat="47.66308" lon="-2.46752">
        <ele>77</ele>
        <time>2022-10-03T22:14:03Z</time>
      </trkpt>
      <trkpt lat="47.66288" lon="-2.46747">
        <ele>77</ele>
        <time>2022-10-03T22:14:30Z</time>
      </trkpt>
      <trkpt lat="47.66271" lon="-2.46718">
        <ele>77</ele>
        <time>2022-10-03T22:15:05Z</time>
      </trkpt>
      <trkpt lat="47.66248" lon="-2.46648">
        <ele>77</ele>
        <time>2022-10-03T22:16:15Z</time>
      </trkpt>
      <trkpt lat="47.66225" lon="-2.46607">
        <ele>80</ele>
        <time>2022-10-03T22:17:03Z</time>
      </trkpt>
      <trkpt lat="47.66208" lon="-2.46591">
        <ele>81</ele>
        <time>2022-10-03T22:17:30Z</time>
      </trkpt>
      <trkpt lat="47.66197" lon="-2.46587">
        <ele>80</ele>
        <time>2022-10-03T22:17:45Z</time>
      </trkpt>
      <trkpt lat="47.66122" lon="-2.46568">
        <ele>81</ele>
        <time>2022-10-03T22:19:26Z</time>
      </trkpt>
    </trkseg>
  </trk>
</gpx>